Time;durP1;ratioP1;P1;durP2;ratioP2;P2;SDS_P1;SDS_P2;PMS_P1;PMS_P2;Temp;Humidity;BMP_temperature;BMP_pressure;BME280_temperature;BME280_humidity;BME280_pressure;Samples;Min_cycle;Max_cycle;Signal;HPM_P1;HPM_P2
2021/08/07 00:00:00;;;;;;;;;0.00;0.00;;;;;18.57;58.44;100201.19;6088975;23;45270;-78
2021/08/07 00:02:25;;;;;;;;;0.00;0.00;;;;;18.29;58.24;100151.16;6088623;23;45406;-79
2021/08/07 00:04:50;;;;;;;;;0.00;0.00;;;;;18.48;57.91;100189.16;6088124;23;45309;-79
2021/08/07 00:07:16;;;;;;;;;0.00;0.00;;;;;18.53;58.48;100199.53;6088666;23;45366;-78
2021/08/07 00:09:41;;;;;;;;;0.00;0.00;;;;;18.56;58.28;100209.13;6087595;23;45476;-78
2021/08/07 00:12:06;;;;;;;;;0.00;0.00;;;;;18.57;58.27;100200.31;6087982;23;45398;-78
2021/08/07 00:14:32;;;;;;;;;0.25;0.00;;;;;18.55;58.33;100205.63;6088133;23;45330;-79
2021/08/07 00:16:57;;;;;;;;;0.00;0.00;;;;;18.45;58.65;100201.56;6088813;23;45372;-79
2021/08/07 00:19:23;;;;;;;;;0.00;0.00;;;;;18.44;58.55;100208.59;6088294;23;45464;-78
2021/08/07 00:21:48;;;;;;;;;0.00;0.00;;;;;18.38;58.81;100203.56;6088377;23;46069;-78
2021/08/07 00:24:14;;;;;;;;;0.00;0.00;;;;;18.36;58.53;100205.38;6088510;23;45366;-78
2021/08/07 00:26:40;;;;;;;;;0.00;0.00;;;;;18.27;58.80;100187.22;6088427;23;45351;-81
2021/08/07 00:29:05;;;;;;;;;0.00;0.00;;;;;18.36;58.61;100200.09;6088483;23;45284;-79
2021/08/07 00:31:31;;;;;;;;;0.00;0.00;;;;;18.27;58.19;100187.22;6088332;23;45344;-79
2021/08/07 00:33:56;;;;;;;;;0.00;0.00;;;;;18.22;58.77;100177.69;6091139;23;45290;-79
2021/08/07 00:36:21;;;;;;;;;0.00;0.00;;;;;18.30;58.56;100188.00;6091938;23;45215;-78
2021/08/07 00:38:47;;;;;;;;;0.00;0.00;;;;;18.34;58.89;100194.00;6092373;23;45354;-79
2021/08/07 00:41:12;;;;;;;;;0.00;0.00;;;;;18.28;58.91;100199.50;6091245;23;46253;-79
2021/08/07 00:43:37;;;;;;;;;0.00;0.00;;;;;18.06;58.67;100168.53;6091236;23;45179;-79
2021/08/07 00:46:03;;;;;;;;;0.00;0.00;;;;;18.17;58.56;100178.75;6091972;23;45278;-78
2021/08/07 00:48:28;;;;;;;;;0.00;0.00;;;;;18.21;58.47;100188.28;6091886;23;45278;-79
2021/08/07 00:50:53;;;;;;;;;0.00;0.00;;;;;17.85;59.05;100129.66;6091061;23;45289;-78
2021/08/07 00:53:20;;;;;;;;;0.00;0.00;;;;;18.13;58.60;100182.41;6089897;23;45262;-78
2021/08/07 00:55:45;;;;;;;;;0.00;0.00;;;;;18.14;58.89;100185.00;6090174;23;45408;-84
2021/08/07 00:58:11;;;;;;;;;0.00;0.00;;;;;18.03;59.14;100179.16;6091563;23;45348;-77
2021/08/07 01:00:36;;;;;;;;;0.00;0.00;;;;;18.00;59.24;100172.22;6089747;23;45722;-78
2021/08/07 01:03:26;;;;;;;;;0.00;0.00;;;;;18.02;58.89;100175.69;6091250;23;45278;-78
2021/08/07 01:06:28;;;;;;;;;0.00;0.00;;;;;17.87;59.96;100169.09;6090446;23;45169;-80
2021/08/07 01:09:06;;;;;;;;;0.00;0.00;;;;;17.86;59.63;100180.56;6180827;23;45449;-78
2021/08/07 01:11:50;;;;;;;;;0.00;0.00;;;;;17.72;59.86;100157.28;6180832;23;45386;-77
2021/08/07 01:14:22;;;;;;;;;0.00;0.00;;;;;17.89;59.90;100167.31;6181595;23;45361;-78
2021/08/07 01:16:49;;;;;;;;;0.00;0.00;;;;;17.72;59.80;100155.53;6181602;23;45429;-78
2021/08/07 01:19:17;;;;;;;;;0.00;0.00;;;;;17.41;59.91;100095.94;6182255;23;45457;-78
2021/08/07 01:21:58;;;;;;;;;0.00;0.00;;;;;17.56;59.90;100133.19;6156017;23;48215;-78
2021/08/07 01:24:34;;;;;;;;;0.00;0.00;;;;;17.80;60.16;100168.41;6182335;23;45425;-79
2021/08/07 01:27:17;;;;;;;;;0.00;0.00;;;;;17.81;60.49;100171.94;6182412;23;45500;-79
2021/08/07 01:29:43;;;;;;;;;0.00;0.00;;;;;17.55;60.73;100140.22;6182760;23;45319;-79
2021/08/07 01:32:09;;;;;;;;;0.00;0.00;;;;;17.80;60.57;100176.31;6182230;23;46062;-79
2021/08/07 01:34:37;;;;;;;;;0.00;0.00;;;;;17.76;60.19;100160.69;6181814;23;45908;-79
2021/08/07 01:37:03;;;;;;;;;0.00;0.00;;;;;16.78;60.73;100011.84;6182396;23;45354;-79
2021/08/07 01:39:28;;;;;;;;;0.00;0.00;;;;;17.39;60.29;100107.41;6182191;23;45691;-79
2021/08/07 01:41:53;;;;;;;;;0.00;0.00;;;;;17.62;60.49;100147.94;6182173;23;46145;-79
2021/08/07 01:44:19;;;;;;;;;0.00;0.00;;;;;17.26;60.19;100080.59;6180636;23;45881;-79
2021/08/07 01:46:54;;;;;;;;;0.00;0.00;;;;;17.53;60.30;100135.91;6097350;23;45214;-80
2021/08/07 01:49:31;;;;;;;;;0.00;0.00;;;;;17.64;60.37;100164.56;6087892;23;45665;-79
2021/08/07 01:52:12;;;;;;;;;0.00;0.00;;;;;17.55;60.69;100148.13;6089371;23;45356;-79
2021/08/07 01:54:45;;;;;;;;;0.00;0.00;;;;;17.65;60.28;100148.72;6088974;23;45336;-78
2021/08/07 01:57:16;;;;;;;;;0.00;0.00;;;;;17.62;60.62;100153.19;6089764;23;45296;-78
2021/08/07 01:59:45;;;;;;;;;0.50;0.00;;;;;17.56;60.24;100138.47;6090407;23;45431;-78
2021/08/07 02:02:14;;;;;;;;;0.00;0.00;;;;;17.27;60.35;100098.13;6089022;23;46573;-78
2021/08/07 02:04:40;;;;;;;;;0.00;0.00;;;;;17.60;60.64;100140.09;6088733;23;45314;-79
2021/08/07 02:07:05;;;;;;;;;0.00;0.00;;;;;17.41;60.41;100118.72;6089523;23;45360;-78
2021/08/07 02:09:31;;;;;;;;;0.00;0.00;;;;;16.73;60.49;100006.72;6089528;23;45528;-78
2021/08/07 02:11:57;;;;;;;;;1.00;1.00;;;;;16.53;60.28;99978.38;6088851;23;46107;-79
2021/08/07 02:14:25;;;;;;;;;0.00;0.00;;;;;16.97;60.51;100048.97;6089188;23;45365;-78
2021/08/07 02:16:52;;;;;;;;;1.00;0.00;;;;;17.28;60.73;100097.19;6088809;23;45239;-78
2021/08/07 02:19:18;;;;;;;;;0.00;0.00;;;;;17.47;60.47;100140.47;6089647;23;45396;-78
2021/08/07 02:21:44;;;;;;;;;0.00;0.00;;;;;17.18;60.84;100096.63;6089627;23;45334;-78
2021/08/07 02:24:10;;;;;;;;;0.00;0.00;;;;;16.77;61.19;100039.88;6089413;23;45850;-78
2021/08/07 02:26:36;;;;;;;;;0.00;0.00;;;;;17.24;60.75;100122.72;6089599;23;45440;-78
2021/08/07 02:29:03;;;;;;;;;0.00;0.00;;;;;17.40;61.06;100136.28;6090126;23;45319;-78
2021/08/07 02:31:30;;;;;;;;;0.00;0.00;;;;;17.21;60.54;100113.16;6089440;23;45586;-78
2021/08/07 02:33:57;;;;;;;;;0.00;0.00;;;;;16.73;60.74;100011.97;6088829;23;45362;-78
2021/08/07 02:36:23;;;;;;;;;0.00;0.00;;;;;17.52;60.32;100121.06;6087362;23;45422;-78
2021/08/07 02:38:49;;;;;;;;;0.00;0.00;;;;;17.41;60.70;100100.31;6089203;23;45232;-78
2021/08/07 02:41:15;;;;;;;;;0.00;0.00;;;;;17.27;60.52;100074.44;6089010;23;46081;-78
2021/08/07 02:43:41;;;;;;;;;0.00;0.00;;;;;17.20;60.13;100074.63;6089347;23;45296;-80
2021/08/07 02:46:07;;;;;;;;;0.00;0.00;;;;;17.59;60.52;100120.81;6089429;23;45368;-78
2021/08/07 02:48:33;;;;;;;;;0.00;0.00;;;;;17.67;60.06;100119.72;6089648;23;45441;-79
2021/08/07 02:50:59;;;;;;;;;0.00;0.00;;;;;17.68;59.90;100108.28;6089195;23;45367;-78
2021/08/07 02:53:26;;;;;;;;;0.00;0.00;;;;;17.41;59.87;100059.09;6088511;23;45407;-78
2021/08/07 02:55:52;;;;;;;;;0.00;0.00;;;;;17.60;60.03;100095.34;6089000;23;45286;-78
2021/08/07 02:58:18;;;;;;;;;0.00;0.00;;;;;17.77;59.75;100110.63;6089553;23;45304;-78
2021/08/07 03:00:43;;;;;;;;;0.00;0.00;;;;;17.72;59.82;100100.25;6088807;23;45252;-78
2021/08/07 03:03:09;;;;;;;;;0.25;0.25;;;;;17.81;59.70;100112.25;6088460;23;45257;-78
2021/08/07 03:05:34;;;;;;;;;0.00;0.00;;;;;17.52;59.49;100069.25;6088292;23;45374;-78
2021/08/07 03:08:00;;;;;;;;;0.00;0.00;;;;;17.68;59.27;100090.72;6088117;23;49231;-79
2021/08/07 03:10:26;;;;;;;;;0.00;0.00;;;;;17.74;59.32;100105.47;6088979;23;45615;-78
2021/08/07 03:12:53;;;;;;;;;0.00;0.00;;;;;17.73;59.64;100104.59;6088560;23;45345;-78
2021/08/07 03:15:21;;;;;;;;;1.00;0.00;;;;;17.75;59.64;100098.41;6088954;23;45391;-78
2021/08/07 03:17:46;;;;;;;;;0.00;0.00;;;;;17.64;59.72;100073.28;6087993;23;45249;-78
2021/08/07 03:20:12;;;;;;;;;0.00;0.00;;;;;17.51;59.50;100059.66;6086621;23;45974;-79
2021/08/07 03:22:38;;;;;;;;;0.00;0.00;;;;;17.83;59.34;100089.34;6087805;23;45305;-78
2021/08/07 03:25:04;;;;;;;;;0.00;0.00;;;;;17.32;59.40;99978.69;6088820;23;45306;-78
2021/08/07 03:27:29;;;;;;;;;0.00;0.00;;;;;17.94;59.33;100075.84;6089339;23;45420;-79
2021/08/07 03:29:55;;;;;;;;;0.00;0.00;;;;;18.01;59.16;100083.56;6088385;23;46109;-79
2021/08/07 03:32:20;;;;;;;;;0.00;0.00;;;;;17.93;58.98;100047.81;6088769;23;45383;-78
2021/08/07 03:34:45;;;;;;;;;0.50;0.00;;;;;17.62;59.21;99990.91;6088283;23;50746;-78
2021/08/07 03:37:11;;;;;;;;;0.00;0.00;;;;;18.08;58.87;100064.88;6088942;23;45658;-78
2021/08/07 03:39:37;;;;;;;;;0.00;0.00;;;;;18.17;59.09;100076.91;6088862;23;46461;-78
2021/08/07 03:42:02;;;;;;;;;0.00;0.00;;;;;18.17;59.35;100078.66;6088913;23;45309;-78
2021/08/07 03:44:27;;;;;;;;;0.00;0.00;;;;;18.15;59.41;100077.84;6088614;23;45226;-78
2021/08/07 03:46:53;;;;;;;;;0.00;0.00;;;;;17.94;59.32;100049.53;6089076;23;45332;-78
2021/08/07 03:49:18;;;;;;;;;0.00;0.00;;;;;17.62;59.25;99983.03;6087785;23;45450;-78
2021/08/07 03:51:43;;;;;;;;;0.50;0.00;;;;;18.09;58.90;100068.34;6088307;23;45468;-78
2021/08/07 03:54:09;;;;;;;;;0.00;0.00;;;;;18.08;59.48;100059.59;6088902;23;45421;-78
2021/08/07 03:56:34;;;;;;;;;0.00;0.00;;;;;18.05;59.51;100050.94;6089223;23;45540;-78
2021/08/07 03:58:59;;;;;;;;;0.00;0.00;;;;;18.13;59.38;100061.25;6088430;23;47242;-79
2021/08/07 04:01:25;;;;;;;;;0.00;0.00;;;;;17.80;59.36;100017.53;6088528;23;45283;-78
2021/08/07 04:03:50;;;;;;;;;0.00;0.00;;;;;18.11;59.40;100056.03;6088622;23;45344;-78
2021/08/07 04:06:15;;;;;;;;;0.00;0.00;;;;;18.11;59.40;100045.50;6088817;23;45490;-78
2021/08/07 04:08:40;;;;;;;;;0.00;0.00;;;;;17.62;59.60;99971.63;6088209;23;45293;-77
2021/08/07 04:11:06;;;;;;;;;0.00;0.00;;;;;17.97;59.62;100025.72;6088733;23;45357;-78
2021/08/07 04:13:31;;;;;;;;;0.00;0.00;;;;;18.06;59.57;100042.13;6087693;23;45504;-78
2021/08/07 04:15:56;;;;;;;;;0.00;0.00;;;;;17.78;59.69;100008.81;6088691;23;45267;-78
2021/08/07 04:18:22;;;;;;;;;0.00;0.00;;;;;18.05;59.47;100056.19;6088029;23;45293;-77
2021/08/07 04:20:47;;;;;;;;;0.00;0.00;;;;;18.01;59.95;100065.13;6087965;23;45332;-77
2021/08/07 04:23:12;;;;;;;;;0.00;0.00;;;;;18.00;59.85;100063.41;6089037;23;45309;-79
2021/08/07 04:25:38;;;;;;;;;0.00;0.00;;;;;17.78;59.72;100017.59;6088586;23;45309;-80
2021/08/07 04:28:05;;;;;;;;;0.00;0.00;;;;;17.98;60.01;100048.50;6087873;23;45443;-80
2021/08/07 04:30:31;;;;;;;;;0.00;0.00;;;;;17.98;59.91;100052.94;6086240;23;46236;-78
2021/08/07 04:32:56;;;;;;;;;0.00;0.00;;;;;17.94;59.57;100044.25;6088408;23;45401;-78
2021/08/07 04:35:21;;;;;;;;;0.00;0.00;;;;;17.87;60.27;100029.56;6087108;23;46156;-77
2021/08/07 04:37:51;;;;;;;;;0.00;0.00;;;;;18.05;60.29;100056.19;6088427;23;45371;-78
2021/08/07 04:40:18;;;;;;;;;0.00;0.00;;;;;18.02;59.95;100051.91;6088559;23;45247;-78
2021/08/07 04:42:44;;;;;;;;;0.00;0.00;;;;;18.02;60.23;100041.38;6088109;23;45275;-78
2021/08/07 04:45:10;;;;;;;;;0.00;0.00;;;;;18.00;60.01;100044.97;6089136;23;45450;-77
2021/08/07 04:47:36;;;;;;;;;0.00;0.00;;;;;17.90;60.26;100047.91;6088624;23;45437;-77
2021/08/07 04:50:01;;;;;;;;;0.00;0.00;;;;;17.71;61.01;100022.16;6087712;23;45340;-78
2021/08/07 04:52:26;;;;;;;;;0.00;0.00;;;;;17.81;60.60;100045.56;6088463;23;45338;-77
2021/08/07 04:54:52;;;;;;;;;0.00;0.00;;;;;17.72;61.34;100028.31;6088324;23;45413;-77
2021/08/07 04:57:17;;;;;;;;;0.00;0.00;;;;;17.66;61.26;100016.22;6087928;23;46273;-78
2021/08/07 04:59:42;;;;;;;;;0.00;0.00;;;;;17.65;61.40;100019.75;6087727;23;53085;-77
2021/08/07 05:02:08;;;;;;;;;0.00;0.00;;;;;17.68;61.42;100024.94;6088365;23;45250;-78
2021/08/07 05:04:33;;;;;;;;;0.00;0.00;;;;;17.79;61.43;100023.72;6087866;23;45384;-77
2021/08/07 05:06:59;;;;;;;;;0.00;0.00;;;;;17.83;61.67;100026.16;6088022;23;46078;-77
2021/08/07 05:09:24;;;;;;;;;0.00;0.00;;;;;17.82;61.51;100018.31;6088352;23;45277;-77
2021/08/07 05:11:49;;;;;;;;;0.50;0.50;;;;;17.83;61.55;100009.53;6087960;23;45442;-77
2021/08/07 05:14:14;;;;;;;;;0.00;0.00;;;;;17.95;61.57;100027.53;6088905;23;45427;-77
2021/08/07 05:16:40;;;;;;;;;0.00;0.00;;;;;17.95;61.36;100024.91;6088129;23;49601;-77
2021/08/07 05:19:05;;;;;;;;;0.00;0.00;;;;;17.93;61.61;100023.25;6087595;23;46059;-77
2021/08/07 05:21:31;;;;;;;;;0.00;0.00;;;;;17.93;61.36;100020.63;6088497;23;55164;-78
2021/08/07 05:23:56;;;;;;;;;0.00;0.00;;;;;17.93;61.71;100016.22;6089799;23;45371;-78
2021/08/07 05:26:21;;;;;;;;;0.00;0.00;;;;;17.91;61.43;100012.75;6089405;23;45320;-78
2021/08/07 05:28:47;;;;;;;;;0.00;0.00;;;;;17.68;61.52;99968.78;6089713;23;45363;-78
2021/08/07 05:31:12;;;;;;;;;0.00;0.00;;;;;17.94;61.59;100004.75;6090178;23;45560;-78
2021/08/07 05:33:38;;;;;;;;;0.25;0.00;;;;;17.91;61.78;100004.88;6090098;23;45313;-78
2021/08/07 05:36:03;;;;;;;;;0.00;0.00;;;;;17.68;62.04;99953.88;6089906;23;45284;-78
2021/08/07 05:38:29;;;;;;;;;0.00;0.00;;;;;18.03;61.97;100006.22;6090240;23;45330;-78
2021/08/07 05:40:54;;;;;;;;;0.00;0.00;;;;;18.05;61.58;99999.13;6090465;23;45474;-78
2021/08/07 05:43:19;;;;;;;;;0.00;0.00;;;;;18.05;61.98;99982.47;6090298;23;45442;-77
2021/08/07 05:45:45;;;;;;;;;0.00;0.00;;;;;18.16;61.61;99996.16;6089172;23;45533;-79
2021/08/07 05:48:10;;;;;;;;;0.00;0.00;;;;;18.04;61.86;99978.13;6089525;23;45293;-81
2021/08/07 05:50:35;;;;;;;;;0.00;0.00;;;;;18.26;61.49;99995.84;6090040;23;45601;-77
2021/08/07 05:53:01;;;;;;;;;0.00;0.00;;;;;18.32;61.48;100001.72;6089460;23;45324;-77
2021/08/07 05:55:26;;;;;;;;;0.00;0.00;;;;;18.31;61.34;99988.59;6089762;23;46066;-78
2021/08/07 05:57:52;;;;;;;;;0.00;0.00;;;;;18.19;61.64;99989.94;6089543;23;46099;-79
2021/08/07 06:00:17;;;;;;;;;0.00;0.00;;;;;18.21;61.24;99999.50;6089514;23;45463;-79
2021/08/07 06:02:42;;;;;;;;;0.00;0.00;;;;;18.25;61.36;100005.50;6087946;23;45358;-79
2021/08/07 06:05:08;;;;;;;;;0.00;0.00;;;;;18.23;61.26;99994.19;6089182;23;53674;-78
2021/08/07 06:07:33;;;;;;;;;0.00;0.00;;;;;18.08;61.61;99967.44;6089668;23;45397;-78
2021/08/07 06:09:59;;;;;;;;;0.00;0.00;;;;;18.13;61.54;99974.34;6088810;23;56337;-79
2021/08/07 06:12:24;;;;;;;;;0.00;0.00;;;;;18.30;61.28;99994.81;6089895;23;45419;-78
2021/08/07 06:14:50;;;;;;;;;0.00;0.00;;;;;18.26;61.19;99990.56;6089037;23;45341;-79
2021/08/07 06:17:15;;;;;;;;;0.00;0.00;;;;;18.15;61.66;99990.94;6089948;23;45307;-79
2021/08/07 06:19:40;;;;;;;;;0.00;0.00;;;;;18.14;62.01;99999.75;6089395;23;51902;-80
2021/08/07 06:22:06;;;;;;;;;0.00;0.00;;;;;18.00;62.15;99987.06;6090102;23;45397;-78
2021/08/07 06:24:31;;;;;;;;;0.00;0.00;;;;;17.99;62.07;100001.97;6089356;23;45428;-78
2021/08/07 06:26:57;;;;;;;;;0.00;0.00;;;;;17.88;63.08;99988.31;6088940;23;45322;-79
2021/08/07 06:29:22;;;;;;;;;0.00;0.00;;;;;17.94;62.68;100002.13;6088872;23;45418;-79
2021/08/07 06:31:47;;;;;;;;;0.00;0.00;;;;;17.93;62.78;100004.81;6089275;23;45387;-77
2021/08/07 06:34:13;;;;;;;;;0.00;0.00;;;;;17.96;62.68;99991.56;6089577;23;45411;-77
2021/08/07 06:36:38;;;;;;;;;0.00;0.00;;;;;17.94;62.35;99986.34;6089126;23;45325;-77
2021/08/07 06:39:04;;;;;;;;;0.00;0.00;;;;;17.84;62.36;99970.00;6089108;23;45269;-79
2021/08/07 06:41:29;;;;;;;;;1.00;0.00;;;;;17.90;63.03;99974.19;6089726;23;45312;-78
2021/08/07 06:43:54;;;;;;;;;0.00;0.00;;;;;17.95;62.51;99972.25;6088775;23;45279;-78
2021/08/07 06:46:20;;;;;;;;;0.00;0.00;;;;;17.91;62.47;99964.50;6087496;23;46018;-79
2021/08/07 06:48:45;;;;;;;;;0.00;0.00;;;;;17.94;62.74;99949.47;6089437;23;45306;-78
2021/08/07 06:51:10;;;;;;;;;0.00;0.00;;;;;18.01;62.21;99952.75;6089957;23;45262;-80
2021/08/07 06:53:36;;;;;;;;;0.00;0.00;;;;;18.25;62.72;99978.31;6087212;23;50968;-78
2021/08/07 06:56:01;;;;;;;;;0.00;0.00;;;;;18.32;62.42;99990.34;6089302;23;45326;-79
2021/08/07 06:58:26;;;;;;;;;0.00;0.00;;;;;18.40;62.33;99983.03;6088641;23;45584;-78
2021/08/07 07:00:52;;;;;;;;;0.00;0.00;;;;;18.47;61.99;99984.50;6089025;23;45503;-78
2021/08/07 07:03:17;;;;;;;;;0.00;0.00;;;;;18.54;61.72;99974.63;6088858;23;45294;-78
2021/08/07 07:05:42;;;;;;;;;0.00;0.00;;;;;18.42;61.54;99960.13;6088526;23;45316;-79
2021/08/07 07:08:08;;;;;;;;;0.00;0.00;;;;;18.56;61.90;99962.22;6088642;23;45351;-78
2021/08/07 07:10:34;;;;;;;;;0.00;0.00;;;;;18.60;61.82;99969.13;6086816;23;45355;-78
2021/08/07 07:13:00;;;;;;;;;0.00;0.00;;;;;18.58;61.38;99976.22;6087925;23;45314;-78
2021/08/07 07:15:25;;;;;;;;;0.00;0.00;;;;;18.60;61.93;99973.53;6088473;23;45389;-78
2021/08/07 07:17:51;;;;;;;;;0.00;0.00;;;;;18.64;61.39;99980.41;6088704;23;45315;-78
2021/08/07 07:20:17;;;;;;;;;0.00;0.00;;;;;18.69;61.55;99981.09;6089357;23;45403;-77
2021/08/07 07:22:43;;;;;;;;;0.00;0.00;;;;;18.78;61.08;99974.63;6086385;23;46112;-78
2021/08/07 07:25:11;;;;;;;;;0.00;0.00;;;;;18.89;61.33;99968.09;6088072;23;45647;-77
2021/08/07 07:27:37;;;;;;;;;0.00;0.00;;;;;18.86;61.03;99950.59;6088466;23;45456;-77
2021/08/07 07:30:04;;;;;;;;;0.00;0.00;;;;;19.11;61.11;99973.38;6088765;23;45536;-77
2021/08/07 07:32:29;;;;;;;;;0.00;0.00;;;;;19.17;60.46;99972.31;6088232;23;48024;-79
2021/08/07 07:34:55;;;;;;;;;0.00;0.00;;;;;19.20;60.77;99936.09;6088342;23;45457;-79
2021/08/07 07:37:20;;;;;;;;;0.00;0.00;;;;;19.53;60.33;99949.75;6088341;23;45285;-82
2021/08/07 07:39:45;;;;;;;;;1.00;0.50;;;;;19.57;59.86;99946.09;6088509;23;45362;-80
2021/08/07 07:42:12;;;;;;;;;0.00;0.00;;;;;19.61;59.80;99950.31;6087715;23;46320;-79
2021/08/07 07:44:37;;;;;;;;;0.00;0.00;;;;;19.60;59.93;99938.03;6087964;23;45307;-79
2021/08/07 07:47:03;;;;;;;;;0.00;0.00;;;;;19.68;59.35;99951.75;6087297;23;51277;-78
2021/08/07 07:49:29;;;;;;;;;0.00;0.00;;;;;19.65;58.91;99964.22;6088366;23;45321;-78
2021/08/07 07:51:54;;;;;;;;;0.00;0.00;;;;;19.64;59.22;99955.47;6087567;23;45652;-78
2021/08/07 07:54:20;;;;;;;;;0.00;0.00;;;;;19.74;59.13;99940.94;6087269;23;45539;-77
2021/08/07 07:56:45;;;;;;;;;0.00;0.00;;;;;19.78;59.02;99936.38;6086764;23;45281;-77
2021/08/07 07:59:10;;;;;;;;;0.00;0.00;;;;;19.96;58.75;99944.44;6086909;23;45606;-78
2021/08/07 08:01:36;;;;;;;;;0.00;0.00;;;;;20.02;58.59;99953.91;6086795;23;45442;-77
2021/08/07 08:04:02;;;;;;;;;0.00;0.00;;;;;19.79;58.64;99913.47;6086837;23;45262;-78
2021/08/07 08:06:27;;;;;;;;;0.00;0.00;;;;;20.01;58.23;99945.13;6087052;23;45285;-77
2021/08/07 08:08:52;;;;;;;;;0.00;0.00;;;;;20.02;58.13;99935.41;6087683;23;45789;-78
2021/08/07 08:11:18;;;;;;;;;0.00;0.00;;;;;20.02;57.92;99938.03;6086929;23;45768;-77
2021/08/07 08:13:43;;;;;;;;;0.00;0.00;;;;;20.06;58.04;99937.00;6087264;23;45487;-79
2021/08/07 08:16:09;;;;;;;;;0.00;0.00;;;;;20.03;57.59;99911.56;6086418;23;45386;-77
2021/08/07 08:18:34;;;;;;;;;0.00;0.00;;;;;20.26;57.65;99930.84;6084458;23;45983;-77
2021/08/07 08:21:00;;;;;;;;;0.25;0.25;;;;;20.46;57.13;99937.00;6084783;23;45405;-76
2021/08/07 08:23:26;;;;;;;;;0.00;0.00;;;;;20.54;57.06;99934.84;6086540;23;45529;-78
2021/08/07 08:25:51;;;;;;;;;0.00;0.00;;;;;20.66;56.59;99929.91;6086761;23;45359;-81
2021/08/07 08:28:17;;;;;;;;;0.00;0.00;;;;;20.66;56.29;99922.84;6087673;23;45235;-76
2021/08/07 08:30:43;;;;;;;;;0.00;0.00;;;;;20.52;56.23;99904.97;6088039;23;45793;-77
2021/08/07 08:33:09;;;;;;;;;0.00;0.00;;;;;20.75;56.29;99926.84;6086307;23;45313;-77
2021/08/07 08:35:35;;;;;;;;;0.00;0.00;;;;;20.72;55.68;99909.34;6087258;23;45493;-77
2021/08/07 08:38:00;;;;;;;;;0.00;0.00;;;;;20.76;55.26;99918.84;6086965;23;45355;-78
2021/08/07 08:40:25;;;;;;;;;0.00;0.00;;;;;20.72;55.33;99911.13;6086771;23;46112;-78
2021/08/07 08:42:52;;;;;;;;;3.00;0.00;;;;;20.77;55.06;99915.28;6087911;23;45363;-78
2021/08/07 08:45:18;;;;;;;;;0.00;0.00;;;;;20.75;55.50;99909.22;6088375;23;45586;-78
2021/08/07 08:47:43;;;;;;;;;0.00;0.00;;;;;20.70;55.14;99913.84;6088270;23;45356;-76
2021/08/07 08:50:10;;;;;;;;;0.00;0.00;;;;;20.54;55.06;99904.91;6086795;23;46327;-76
2021/08/07 08:52:38;;;;;;;;;0.00;0.00;;;;;20.38;55.87;99898.56;6087199;23;45343;-78
2021/08/07 08:55:05;;;;;;;;;0.00;0.00;;;;;20.29;56.16;99895.47;6089226;23;45313;-77
2021/08/07 08:57:30;;;;;;;;;0.00;0.00;;;;;20.28;56.65;99888.47;6090298;23;45314;-77
2021/08/07 08:59:56;;;;;;;;;0.00;0.00;;;;;20.34;56.09;99901.44;6087237;23;45565;-78
2021/08/07 09:02:21;;;;;;;;;0.00;0.00;;;;;20.22;56.03;99886.97;6086488;23;45677;-79
2021/08/07 09:04:47;;;;;;;;;0.00;0.00;;;;;20.06;56.69;99889.47;6078200;23;45350;-79
2021/08/07 09:07:14;;;;;;;;;0.00;0.00;;;;;19.94;57.48;99864.41;6088284;23;45340;-80
2021/08/07 09:09:41;;;;;;;;;0.25;0.00;;;;;20.09;57.65;99892.81;6087197;23;46532;-79
2021/08/07 09:12:08;;;;;;;;;0.00;0.00;;;;;20.00;58.83;99890.56;6086447;23;45741;-80
2021/08/07 09:14:42;;;;;;;;;0.00;0.00;;;;;19.90;58.75;99892.72;6087462;23;45444;-79
2021/08/07 09:17:14;;;;;;;;;0.00;0.00;;;;;19.63;59.59;99882.44;6085143;23;45336;-76
2021/08/07 09:19:39;;;;;;;;;0.00;0.00;;;;;19.60;60.31;99888.72;6088673;23;46102;-77
2021/08/07 09:22:29;;;;;;;;;0.00;0.00;;;;;19.29;61.66;99871.53;6088397;22;45317;-78
2021/08/07 09:25:00;;;;;;;;;0.00;0.00;;;;;19.30;62.38;99894.38;6097804;23;45288;-78
2021/08/07 09:27:49;;;;;;;;;0.00;0.00;;;;;19.15;63.01;99884.44;6088251;23;45326;-77
2021/08/07 09:30:17;;;;;;;;;0.00;0.00;;;;;19.19;62.84;99892.19;6088064;23;45933;-75
2021/08/07 09:32:54;;;;;;;;;0.00;0.00;;;;;18.67;63.52;99816.00;6087888;23;45388;-74
2021/08/07 09:35:27;;;;;;;;;4.00;0.00;;;;;19.16;64.03;99896.72;6088473;23;45354;-74
2021/08/07 09:38:25;;;;;;;;;0.00;0.00;;;;;19.24;64.92;99890.19;6088024;23;45348;-75
2021/08/07 09:41:00;;;;;;;;;0.00;0.00;;;;;19.15;64.34;99884.44;6088297;23;46080;-74
2021/08/07 09:43:32;;;;;;;;;0.00;0.00;;;;;19.02;64.27;99870.88;6087547;23;45297;-74
2021/08/07 09:46:05;;;;;;;;;0.00;0.00;;;;;19.03;64.75;99891.06;6085800;23;45397;-74
2021/08/07 09:48:32;;;;;;;;;0.00;0.00;;;;;18.95;65.34;99886.06;6088395;23;45325;-75
2021/08/07 09:50:57;;;;;;;;;1.00;0.00;;;;;18.97;65.65;99886.88;6087751;23;46198;-74
2021/08/07 09:53:27;;;;;;;;;0.00;0.00;;;;;18.94;65.50;99873.81;6087148;23;45302;-74
2021/08/07 09:56:07;;;;;;;;;0.00;0.00;;;;;18.81;65.57;99866.38;6087879;23;45327;-77
2021/08/07 09:58:33;;;;;;;;;0.50;0.00;;;;;18.91;66.12;99882.72;6087571;23;45354;-75
2021/08/07 10:00:59;;;;;;;;;0.25;0.25;;;;;18.90;66.14;99886.28;6087298;23;46288;-75
2021/08/07 10:03:31;;;;;;;;;0.00;0.00;;;;;18.92;66.20;99876.50;6087105;23;45876;-75
2021/08/07 10:06:18;;;;;;;;;0.00;0.00;;;;;18.97;66.53;99881.63;6084930;23;45500;-75
2021/08/07 10:08:49;;;;;;;;;0.00;0.00;;;;;18.98;66.37;99884.19;6086862;23;45379;-75
2021/08/07 10:11:14;;;;;;;;;0.00;0.00;;;;;19.02;67.04;99890.19;6087047;23;45415;-77
2021/08/07 10:13:41;;;;;;;;;0.00;0.00;;;;;18.97;66.62;99882.47;6086001;23;45340;-77
2021/08/07 10:16:07;;;;;;;;;0.00;0.00;;;;;18.89;66.64;99878.44;6085717;23;45437;-76
2021/08/07 10:18:33;;;;;;;;;0.00;0.00;;;;;18.81;67.40;99869.03;6088259;23;45372;-76
2021/08/07 10:21:02;;;;;;;;;0.00;0.00;;;;;18.80;66.31;99882.28;6087911;23;45720;-76
2021/08/07 10:23:29;;;;;;;;;0.00;0.00;;;;;18.60;66.45;99868.09;6087481;23;45383;-76
2021/08/07 10:25:55;;;;;;;;;0.00;0.00;;;;;18.58;66.46;99873.44;6088234;23;45325;-77
2021/08/07 10:28:22;;;;;;;;;0.00;0.00;;;;;18.49;66.74;99866.75;6086613;23;45282;-74
2021/08/07 10:30:48;;;;;;;;;0.00;0.00;;;;;18.41;66.84;99863.53;6087041;23;46514;-73
2021/08/07 10:33:15;;;;;;;;;0.00;0.00;;;;;18.52;67.45;99865.75;6086237;23;46651;-74
2021/08/07 10:35:42;;;;;;;;;1.00;0.00;;;;;18.53;67.34;99858.72;6087504;23;45376;-73
2021/08/07 10:38:13;;;;;;;;;0.00;0.00;;;;;18.57;67.14;99855.06;6087206;23;45308;-75
2021/08/07 10:40:39;;;;;;;;;0.00;0.00;;;;;18.61;67.87;99851.38;6087023;23;45382;-76
2021/08/07 10:43:06;;;;;;;;;0.00;0.00;;;;;18.79;67.61;99846.28;6087736;23;45408;-74
2021/08/07 10:45:32;;;;;;;;;0.00;0.00;;;;;18.94;66.93;99842.19;6088020;23;45420;-74
2021/08/07 10:47:57;;;;;;;;;0.00;0.00;;;;;18.95;66.30;99850.03;6085207;23;45457;-74
2021/08/07 10:50:27;;;;;;;;;0.00;0.00;;;;;19.03;66.73;99846.22;6086177;23;45320;-74
2021/08/07 10:52:58;;;;;;;;;0.00;0.00;;;;;19.10;66.56;99826.59;6086483;23;45628;-74
2021/08/07 10:55:41;;;;;;;;;0.00;0.00;;;;;19.30;66.74;99840.75;6086429;23;45464;-76
2021/08/07 10:58:32;;;;;;;;;0.00;0.00;;;;;19.39;66.16;99840.38;6085382;23;45326;-76
2021/08/07 11:01:22;;;;;;;;;0.00;0.00;;;;;19.52;65.88;99835.41;6086677;23;45411;-74
2021/08/07 11:03:49;;;;;;;;;0.00;0.00;;;;;19.61;65.91;99840.28;6083911;23;45475;-73
2021/08/07 11:06:14;;;;;;;;;0.00;0.00;;;;;19.63;65.39;99840.22;6086958;23;45404;-74
2021/08/07 11:08:40;;;;;;;;;0.00;0.00;;;;;19.56;64.96;99815.88;6087104;23;45643;-73
2021/08/07 11:11:28;;;;;;;;;0.00;0.00;;;;;19.69;64.89;99820.63;6086480;23;45476;-74
2021/08/07 11:13:54;;;;;;;;;0.00;0.00;;;;;19.65;65.00;99827.81;6086914;23;45372;-74
2021/08/07 11:16:20;;;;;;;;;0.00;0.00;;;;;19.69;64.82;99823.28;6087024;23;45461;-75
2021/08/07 11:18:47;;;;;;;;;0.00;0.00;;;;;19.80;65.01;99828.91;6060394;23;45525;-75
2021/08/07 11:22:02;;;;;;;;;0.00;0.00;;;;;19.93;64.73;99837.13;6085976;23;45353;-74
2021/08/07 11:24:49;;;;;;;;;0.00;0.00;;;;;20.02;63.84;99829.75;6079124;23;45377;-78
2021/08/07 11:27:16;;;;;;;;;0.00;0.00;;;;;20.03;63.76;99827.03;6087023;23;45298;-77
2021/08/07 11:30:16;;;;;;;;;0.00;0.00;;;;;20.16;63.62;99818.56;6087544;23;45458;-75